createdAt,value
2022-10-28T00:02:03.087Z,101131.09
2022-10-28T00:04:04.981Z,101133.66
2022-10-28T00:06:18.081Z,101133.63
2022-10-28T00:08:19.744Z,101139.75
2022-10-28T00:10:21.367Z,101134.56
2022-10-28T00:12:22.993Z,101144.06
2022-10-28T00:14:25.178Z,101138.00
2022-10-28T00:16:29.332Z,101141.50
2022-10-28T00:18:31.134Z,101149.31
2022-10-28T00:20:32.811Z,101140.59
2022-10-28T00:22:34.497Z,101149.28
2022-10-28T00:24:36.238Z,101144.94
2022-10-28T00:26:42.255Z,101144.06
2022-10-28T00:28:46.926Z,101144.06
2022-10-28T00:30:48.626Z,101154.50
2022-10-28T00:32:50.579Z,101150.16
2022-10-28T00:34:52.700Z,101138.00
2022-10-28T00:36:54.368Z,101137.13
2022-10-28T00:38:56.857Z,101136.28
2022-10-28T00:40:58.487Z,101134.53
2022-10-28T00:43:00.159Z,101138.91
2022-10-28T00:45:03.354Z,101138.88
2022-10-28T00:47:12.771Z,101129.34
2022-10-28T00:49:24.957Z,101129.38
2022-10-28T00:51:28.666Z,101134.53
2022-10-28T00:53:32.399Z,101129.38
2022-10-28T00:55:35.827Z,101133.72
2022-10-28T00:57:38.436Z,101132.88
2022-10-28T00:59:46.015Z,101138.09
2022-10-28T01:01:48.129Z,101138.94
2022-10-28T01:03:49.841Z,101136.34
2022-10-28T01:05:52.918Z,101130.25
2022-10-28T01:07:59.533Z,101123.31
2022-10-28T01:10:01.177Z,101126.81
2022-10-28T01:12:16.246Z,101133.75
2022-10-28T01:15:10.770Z,101138.94
2022-10-28T01:17:47.362Z,101136.38
2022-10-28T01:20:23.058Z,101132.00
2022-10-28T01:24:53.038Z,101122.47
2022-10-28T01:27:39.160Z,101125.06
2022-10-28T01:29:49.899Z,101124.22
2022-10-28T01:31:54.037Z,101126.81
2022-10-28T01:34:01.645Z,101118.13
2022-10-28T01:36:13.900Z,101124.22
2022-10-28T01:38:32.795Z,101126.84
2022-10-28T01:40:42.206Z,101125.97
2022-10-28T01:43:01.319Z,101114.69
2022-10-28T01:45:14.230Z,101111.22
2022-10-28T01:48:00.434Z,101109.47
2022-10-28T01:50:51.488Z,101106.03
2022-10-28T01:52:59.320Z,101107.75
2022-10-28T01:55:13.529Z,101115.59
2022-10-28T01:57:18.326Z,101111.25
2022-10-28T01:59:23.538Z,101094.78
2022-10-28T02:01:27.496Z,101091.31
2022-10-28T02:03:29.282Z,101088.72
2022-10-28T02:05:48.777Z,101091.31
2022-10-28T02:07:54.520Z,101086.13
2022-10-28T02:10:10.258Z,101087.84
2022-10-28T02:12:26.768Z,101083.50
2022-10-28T02:14:43.143Z,101078.25
2022-10-28T02:16:53.507Z,101067.91
2022-10-28T02:19:16.536Z,101069.63
2022-10-28T02:21:30.168Z,101067.88
2022-10-28T02:23:46.794Z,101059.22
2022-10-28T02:25:48.566Z,101049.63
2022-10-28T02:28:04.596Z,101045.34
2022-10-28T02:30:09.294Z,101034.94
2022-10-28T02:32:19.837Z,101041.88
2022-10-28T02:34:33.749Z,101033.19
2022-10-28T02:36:40.469Z,101025.41
2022-10-28T02:38:52.358Z,101023.66
2022-10-28T02:40:58.440Z,101025.38
2022-10-28T02:43:03.953Z,101031.47
2022-10-28T02:45:15.135Z,101028.00
2022-10-28T02:47:24.243Z,101015.81
2022-10-28T02:49:28.407Z,101007.13
2022-10-28T02:51:35.511Z,101008.81
2022-10-28T02:53:56.523Z,100994.94
2022-10-28T02:56:02.397Z,100991.44
2022-10-28T02:58:05.883Z,100981.13
2022-10-28T03:00:16.483Z,100989.78
2022-10-28T03:02:18.270Z,100975.84
2022-10-28T03:04:20.091Z,100970.66
2022-10-28T03:06:23.078Z,100968.03
2022-10-28T03:08:25.439Z,100961.97
2022-10-28T03:10:27.156Z,100965.41
2022-10-28T03:12:28.832Z,100961.09
2022-10-28T03:14:30.497Z,100961.97
2022-10-28T03:16:32.129Z,100962.00
2022-10-28T03:18:33.885Z,100962.84
2022-10-28T03:20:35.540Z,100957.63
2022-10-28T03:22:37.213Z,100949.84
2022-10-28T03:24:38.912Z,100945.53
2022-10-28T03:26:40.670Z,100948.13
2022-10-28T03:28:42.321Z,100944.66
2022-10-28T03:30:44.118Z,100942.03
2022-10-28T03:32:45.756Z,100938.59
2022-10-28T03:34:47.627Z,100938.59
2022-10-28T03:36:49.243Z,100940.34
2022-10-28T03:38:50.857Z,100942.06
2022-10-28T03:40:52.543Z,100927.34
2022-10-28T03:42:54.535Z,100931.69
2022-10-28T03:44:56.253Z,100931.69
2022-10-28T03:46:58.514Z,100930.81
2022-10-28T03:49:00.101Z,100925.69
2022-10-28T03:51:01.874Z,100924.78
2022-10-28T03:53:03.673Z,100925.63
2022-10-28T03:55:05.802Z,100928.25
2022-10-28T03:57:07.409Z,100934.31
2022-10-28T03:59:09.974Z,100919.59
2022-10-28T04:01:11.660Z,100930.84
2022-10-28T04:03:13.388Z,100935.19
2022-10-28T04:05:15.529Z,100949.09
2022-10-28T04:07:17.144Z,100951.69
2022-10-28T04:09:18.852Z,100950.84
2022-10-28T04:11:20.494Z,100963.00
2022-10-28T04:13:22.115Z,100955.22
2022-10-28T04:15:24.013Z,100950.88
2022-10-28T04:17:25.655Z,100948.28
2022-10-28T04:19:27.301Z,100944.78
2022-10-28T04:21:29.034Z,100942.16
2022-10-28T04:23:30.794Z,100940.47
2022-10-28T04:25:32.713Z,100938.75
2022-10-28T04:27:34.311Z,100937.00
2022-10-28T04:29:36.327Z,100930.06
2022-10-28T04:31:37.979Z,100919.66
2022-10-28T04:33:39.652Z,100913.59
2022-10-28T04:35:43.298Z,100918.81
2022-10-28T04:37:45.009Z,100912.78
2022-10-28T04:39:46.679Z,100915.38
2022-10-28T04:41:48.490Z,100911.06
2022-10-28T04:43:50.156Z,100915.38
2022-10-28T04:45:52.714Z,100905.00
2022-10-28T04:48:01.410Z,100895.41
2022-10-28T04:50:06.477Z,100905.81
2022-10-28T04:52:09.791Z,100910.22
2022-10-28T04:54:13.712Z,100904.09
2022-10-28T04:56:15.368Z,100902.34
2022-10-28T04:58:17.022Z,100894.53
2022-10-28T05:00:18.706Z,100903.19
2022-10-28T05:02:23.080Z,100893.66
2022-10-28T05:04:24.791Z,100896.28
2022-10-28T05:06:26.405Z,100895.41
2022-10-28T05:08:28.034Z,100896.28
2022-10-28T05:10:30.803Z,100891.06
2022-10-28T05:12:32.416Z,100903.19
2022-10-28T05:14:34.087Z,100898.84
2022-10-28T05:16:35.811Z,100890.13
2022-10-28T05:18:37.555Z,100892.75
2022-10-28T05:20:39.207Z,100892.75
2022-10-28T05:22:53.170Z,100900.53
2022-10-28T05:24:56.148Z,100908.34
2022-10-28T05:26:59.939Z,100917.00
2022-10-28T05:29:01.564Z,100915.25
2022-10-28T05:31:03.210Z,100934.34
2022-10-28T05:33:05.127Z,100940.44
2022-10-28T05:35:07.836Z,100957.78
2022-10-28T05:37:09.439Z,100935.22
2022-10-28T05:39:12.820Z,100940.41
2022-10-28T05:41:14.494Z,100935.19
2022-10-28T05:43:16.109Z,100925.69
2022-10-28T05:45:17.818Z,100923.97
2022-10-28T05:47:19.824Z,100919.56
2022-10-28T05:49:21.582Z,100925.69
2022-10-28T05:51:23.332Z,100926.50
2022-10-28T05:53:25.098Z,100911.81
2022-10-28T05:55:28.485Z,100922.13
2022-10-28T05:57:30.442Z,100912.56
2022-10-28T05:59:32.137Z,100923.88
2022-10-28T06:01:33.820Z,100929.91
2022-10-28T06:03:35.791Z,100929.09
2022-10-28T06:05:42.039Z,100924.69
2022-10-28T06:07:43.793Z,100918.66
2022-10-28T06:09:45.572Z,100910.00
2022-10-28T06:12:06.867Z,100910.84
2022-10-28T06:14:08.613Z,100917.75
2022-10-28T06:16:10.293Z,100908.25
2022-10-28T06:18:15.448Z,100915.16
2022-10-28T06:20:19.954Z,100895.22
2022-10-28T06:22:21.786Z,100907.34
2022-10-28T06:24:23.501Z,100937.72
2022-10-28T06:26:25.334Z,100934.19
2022-10-28T06:28:28.085Z,100942.84
2022-10-28T06:30:29.854Z,100928.97
2022-10-28T06:32:32.401Z,100918.63
2022-10-28T06:34:34.044Z,100926.41
2022-10-28T06:36:35.762Z,100935.03
2022-10-28T06:38:37.426Z,100928.09
2022-10-28T06:40:39.104Z,100933.31
2022-10-28T06:42:40.739Z,100934.16
2022-10-28T06:44:42.564Z,100942.88
2022-10-28T06:46:45.736Z,100942.03
2022-10-28T06:48:48.131Z,100947.25
2022-10-28T06:50:50.004Z,100961.97
2022-10-28T06:52:52.097Z,100950.72
2022-10-28T06:54:53.834Z,100956.84
2022-10-28T06:56:55.451Z,100946.38
2022-10-28T06:58:57.347Z,100964.59
2022-10-28T07:01:03.634Z,100959.41
2022-10-28T07:03:05.426Z,100957.69
2022-10-28T07:05:07.824Z,100954.22
2022-10-28T07:07:09.615Z,100966.38
2022-10-28T07:09:14.383Z,100961.16
2022-10-28T07:11:16.344Z,100981.13
2022-10-28T07:13:17.962Z,100983.75
2022-10-28T07:15:19.655Z,100987.22
2022-10-28T07:17:21.314Z,100977.66
2022-10-28T07:19:22.961Z,100974.16
2022-10-28T07:21:28.554Z,100981.09
2022-10-28T07:23:34.349Z,100979.41
2022-10-28T07:25:36.245Z,100986.28
2022-10-28T07:27:37.902Z,100975.00
2022-10-28T07:29:39.697Z,100976.72
2022-10-28T07:31:41.332Z,100987.19
2022-10-28T07:33:44.300Z,100995.81
2022-10-28T07:35:45.937Z,100989.72
2022-10-28T07:37:47.649Z,100989.72
2022-10-28T07:39:49.258Z,101010.56
2022-10-28T07:41:50.887Z,101026.19
2022-10-28T07:43:52.737Z,101037.47
2022-10-28T07:45:58.308Z,101039.19
2022-10-28T07:48:00.038Z,101038.28
2022-10-28T07:50:17.126Z,101030.47
2022-10-28T07:52:18.768Z,101033.91
2022-10-28T07:54:20.644Z,101030.47
2022-10-28T07:56:22.354Z,101039.97
2022-10-28T07:58:24.471Z,101036.47
2022-10-28T08:00:26.158Z,101041.69
2022-10-28T08:02:27.840Z,101030.41
2022-10-28T08:04:32.976Z,101026.03
2022-10-28T08:06:36.075Z,101029.53
2022-10-28T08:08:38.766Z,101024.34
2022-10-28T08:10:40.512Z,101034.75
2022-10-28T08:12:42.260Z,101042.50
2022-10-28T08:14:44.224Z,101032.97
2022-10-28T08:16:46.513Z,101038.16
2022-10-28T08:18:48.224Z,101042.50
2022-10-28T08:20:49.902Z,101053.78
2022-10-28T08:22:52.071Z,101052.97
2022-10-28T08:24:54.001Z,101061.59
2022-10-28T08:26:55.847Z,101059.88
2022-10-28T08:28:58.293Z,101045.09
2022-10-28T08:31:09.399Z,101059.00
2022-10-28T08:33:11.422Z,101085.00
2022-10-28T08:35:13.309Z,101047.66
2022-10-28T08:37:16.381Z,101063.28
2022-10-28T08:39:18.130Z,101078.91
2022-10-28T08:41:28.521Z,101058.94
2022-10-28T08:43:56.669Z,101065.00
2022-10-28T08:46:38.057Z,101070.31
2022-10-28T08:48:40.455Z,101097.25
2022-10-28T08:50:58.674Z,101072.06
2022-10-28T08:53:17.565Z,101057.31
2022-10-28T08:55:24.535Z,101084.19
2022-10-28T08:57:32.574Z,101078.09
2022-10-28T08:59:39.012Z,101077.22
2022-10-28T09:01:56.794Z,101080.72
2022-10-28T09:04:05.886Z,101077.19
2022-10-28T09:06:09.521Z,101076.31
2022-10-28T09:08:33.860Z,101085.91
2022-10-28T09:11:14.025Z,101084.13
2022-10-28T09:13:37.108Z,101089.38
2022-10-28T09:16:02.248Z,101097.22
2022-10-28T09:18:15.860Z,101091.19
2022-10-28T09:20:26.358Z,101097.19
2022-10-28T09:22:49.759Z,101096.28
2022-10-28T09:25:02.653Z,101102.38
2022-10-28T09:27:23.131Z,101122.41
2022-10-28T09:29:43.288Z,101112.84
2022-10-28T09:32:23.984Z,101111.03
2022-10-28T09:34:34.567Z,101124.06
2022-10-28T09:36:45.249Z,101124.94
2022-10-28T09:38:47.255Z,101129.28
2022-10-28T09:40:54.329Z,101126.66
2022-10-28T09:43:02.986Z,101138.84
2022-10-28T09:45:11.743Z,101147.53
2022-10-28T09:47:17.629Z,101169.22
2022-10-28T09:49:25.452Z,101173.59
2022-10-28T09:51:54.680Z,101164.03
2022-10-28T09:54:01.500Z,101166.66
2022-10-28T09:56:06.363Z,101167.53
2022-10-28T09:58:11.712Z,101182.25
2022-10-28T10:00:16.125Z,101172.69
2022-10-28T10:02:32.215Z,101176.19
2022-10-28T10:04:36.057Z,101169.19
2022-10-28T10:06:39.699Z,101190.06
2022-10-28T10:08:42.195Z,101203.06
2022-10-28T10:10:54.635Z,101193.50
2022-10-28T10:13:01.815Z,101200.38
2022-10-28T10:15:07.085Z,101203.88
2022-10-28T10:17:32.929Z,101210.84
2022-10-28T10:20:05.128Z,101216.91
2022-10-28T10:22:06.896Z,101223.94
2022-10-28T10:24:25.865Z,101215.22
2022-10-28T10:26:33.348Z,101219.63
2022-10-28T10:28:43.945Z,101229.13
2022-10-28T10:30:51.323Z,101228.25
2022-10-28T10:32:53.941Z,101223.88
2022-10-28T10:35:15.744Z,101229.94
2022-10-28T10:37:21.072Z,101241.19
2022-10-28T10:39:35.246Z,101259.44
2022-10-28T10:41:44.430Z,101252.44
2022-10-28T10:43:46.170Z,101261.97
2022-10-28T10:46:11.164Z,101255.03
2022-10-28T10:48:16.255Z,101300.31
2022-10-28T10:50:24.786Z,101263.84
2022-10-28T10:52:28.286Z,101286.44
2022-10-28T10:54:32.710Z,101282.06
2022-10-28T10:56:34.476Z,101276.03
2022-10-28T10:58:40.585Z,101278.59
2022-10-28T11:00:50.609Z,101287.31
2022-10-28T11:02:55.790Z,101289.03
2022-10-28T11:05:10.051Z,101303.78
2022-10-28T11:07:15.903Z,101294.28
2022-10-28T11:09:35.661Z,101299.44
2022-10-28T11:11:39.800Z,101299.44
2022-10-28T11:13:45.169Z,101315.06
2022-10-28T11:16:00.018Z,101308.97
2022-10-28T11:18:20.807Z,101305.53
2022-10-28T11:20:44.099Z,101310.78
2022-10-28T11:23:26.859Z,101310.72
2022-10-28T11:25:36.607Z,101302.94
2022-10-28T11:27:58.787Z,101314.25
2022-10-28T11:30:08.882Z,101303.88
2022-10-28T11:32:28.425Z,101340.34
2022-10-28T11:34:54.224Z,101319.50
2022-10-28T11:37:25.035Z,101327.31
2022-10-28T11:39:36.813Z,101335.97
2022-10-28T11:42:09.976Z,101347.28
2022-10-28T11:44:57.028Z,101335.09
2022-10-28T11:47:39.107Z,101322.97
2022-10-28T11:50:30.957Z,101315.13
2022-10-28T11:53:18.163Z,101323.81
2022-10-28T11:55:57.628Z,101327.28
2022-10-28T11:58:25.454Z,101332.50
2022-10-28T12:01:06.837Z,101318.59
2022-10-28T12:04:02.770Z,101320.31
2022-10-28T12:06:38.969Z,101304.66
2022-10-28T12:08:49.252Z,101302.91
2022-10-28T12:11:03.957Z,101298.53
2022-10-28T12:13:52.821Z,101303.72
2022-10-28T12:16:23.061Z,101318.47
2022-10-28T12:19:00.111Z,101318.41
2022-10-28T12:21:41.653Z,101312.28
2022-10-28T12:23:44.533Z,101312.25
2022-10-28T12:25:50.224Z,101313.13
2022-10-28T12:28:09.993Z,101320.06
2022-10-28T12:30:54.295Z,101323.53
2022-10-28T12:33:42.626Z,101315.59
2022-10-28T12:36:43.837Z,101322.56
2022-10-28T12:39:43.872Z,101325.94
2022-10-28T12:42:33.746Z,101330.25
2022-10-28T12:44:38.396Z,101325.94
2022-10-28T12:46:54.895Z,101333.72
2022-10-28T12:49:04.632Z,101330.13
2022-10-28T12:51:57.669Z,101334.38
2022-10-28T12:54:28.885Z,101336.16
2022-10-28T12:57:16.092Z,101351.06
2022-10-28T12:59:20.342Z,101346.66
2022-10-28T13:01:27.229Z,101348.34
2022-10-28T13:03:54.639Z,101341.34
2022-10-28T13:06:29.592Z,101356.16
2022-10-28T13:09:25.180Z,101337.78
2022-10-28T13:12:22.262Z,101347.34
2022-10-28T13:14:38.260Z,101349.94
2022-10-28T13:17:02.977Z,101361.28
2022-10-28T13:19:17.739Z,101369.31
2022-10-28T13:22:00.669Z,101368.31
2022-10-28T13:24:26.864Z,101368.34
2022-10-28T13:26:34.861Z,101365.69
2022-10-28T13:28:44.685Z,101366.47
2022-10-28T13:30:58.728Z,101367.41
2022-10-28T13:33:07.861Z,101371.75
2022-10-28T13:35:22.736Z,101373.53
2022-10-28T13:37:28.128Z,101381.34
2022-10-28T13:39:29.795Z,101394.38
2022-10-28T13:41:44.768Z,101384.81
2022-10-28T13:43:49.573Z,101392.66
2022-10-28T13:46:20.239Z,101392.66
2022-10-28T13:49:06.798Z,101395.28
2022-10-28T13:54:09.417Z,101399.69
2022-10-28T13:56:43.895Z,101396.19
2022-10-28T13:59:04.052Z,101401.44
2022-10-28T14:02:28.473Z,101408.34
2022-10-28T14:04:59.812Z,101408.34
2022-10-28T14:07:20.024Z,101410.94
2022-10-28T14:09:56.492Z,101407.50
2022-10-28T14:12:35.477Z,101416.16
2022-10-28T14:15:38.293Z,101412.63
2022-10-28T14:18:42.950Z,101412.50
2022-10-28T14:20:46.042Z,101419.41
2022-10-28T14:22:48.235Z,101412.38
2022-10-28T14:25:19.822Z,101414.91
2022-10-28T14:28:06.502Z,101424.28
2022-10-28T14:30:20.497Z,101426.84
2022-10-28T14:32:43.628Z,101429.47
2022-10-28T14:35:15.758Z,101441.50
2022-10-28T14:38:10.716Z,101447.50
2022-10-28T14:40:40.759Z,101439.72
2022-10-28T14:43:35.681Z,101447.50
2022-10-28T14:45:45.713Z,101443.94
2022-10-28T14:48:00.787Z,101453.56
2022-10-28T14:50:15.508Z,101457.22
2022-10-28T14:52:20.989Z,101464.31
2022-10-28T14:54:40.873Z,101460.72
2022-10-28T14:56:44.733Z,101453.81
2022-10-28T14:58:47.669Z,101455.38
2022-10-28T15:01:08.539Z,101449.25
2022-10-28T15:03:12.800Z,101439.53
2022-10-28T15:05:20.877Z,101450.00
2022-10-28T15:07:24.399Z,101463.19
2022-10-28T15:09:30.838Z,101460.63
2022-10-28T15:11:34.809Z,101458.06
2022-10-28T15:13:37.325Z,101467.69
2022-10-28T15:15:40.474Z,101459.94
2022-10-28T15:17:44.292Z,101463.47
2022-10-28T15:19:50.448Z,101460.03
2022-10-28T15:22:02.597Z,101467.97
2022-10-28T15:24:07.577Z,101459.44
2022-10-28T15:26:12.805Z,101456.00
2022-10-28T15:28:15.397Z,101457.72
2022-10-28T15:30:21.375Z,101463.84
2022-10-28T15:32:24.366Z,101460.53
2022-10-28T15:34:30.423Z,101461.44
2022-10-28T15:36:33.236Z,101464.94
2022-10-28T15:38:39.963Z,101480.66
2022-10-28T15:40:42.551Z,101484.94
2022-10-28T15:42:53.500Z,101497.19
2022-10-28T15:44:57.346Z,101483.31
2022-10-28T15:47:02.035Z,101476.31
2022-10-28T15:49:04.739Z,101483.31
2022-10-28T15:51:17.787Z,101492.94
2022-10-28T15:53:32.665Z,101498.13
2022-10-28T15:56:08.517Z,101502.56
2022-10-28T15:58:23.618Z,101513.03
2022-10-28T16:00:30.583Z,101507.84
2022-10-28T16:02:42.511Z,101500.88
2022-10-28T16:04:45.404Z,101503.53
2022-10-28T16:06:52.555Z,101506.13
2022-10-28T16:09:01.243Z,101496.56
2022-10-28T16:11:07.339Z,101494.84
2022-10-28T16:13:18.549Z,101505.28
2022-10-28T16:15:21.935Z,101498.38
2022-10-28T16:17:27.448Z,101504.47
2022-10-28T16:19:35.811Z,101510.53
2022-10-28T16:21:39.688Z,101514.00
2022-10-28T16:23:44.260Z,101517.50
2022-10-28T16:25:47.067Z,101518.38
2022-10-28T16:27:50.849Z,101533.22
2022-10-28T16:29:53.856Z,101534.94
2022-10-28T16:31:57.463Z,101532.34
2022-10-28T16:34:01.148Z,101534.06
2022-10-28T16:36:04.624Z,101547.13
2022-10-28T16:38:12.751Z,101548.84
2022-10-28T16:40:37.544Z,101557.53
2022-10-28T16:42:39.407Z,101564.50
2022-10-28T16:44:41.740Z,101561.84
2022-10-28T16:46:44.318Z,101567.94
2022-10-28T16:48:46.670Z,101574.06
2022-10-28T16:50:53.651Z,101578.38
2022-10-28T16:52:56.903Z,101575.75
2022-10-28T16:54:59.446Z,101577.50
2022-10-28T16:57:02.322Z,101586.19
2022-10-28T16:59:04.824Z,101589.66
2022-10-28T17:01:07.562Z,101581.84
2022-10-28T17:03:16.027Z,101587.06
2022-10-28T17:05:21.510Z,101588.78
2022-10-28T17:07:24.375Z,101589.66
2022-10-28T17:09:26.822Z,101589.56
2022-10-28T17:11:29.057Z,101582.66
2022-10-28T17:13:31.632Z,101592.16
2022-10-28T17:15:34.277Z,101597.38
2022-10-28T17:17:37.032Z,101599.13
2022-10-28T17:19:40.904Z,101591.31
2022-10-28T17:21:43.936Z,101598.19
2022-10-28T17:23:46.711Z,101599.13
2022-10-28T17:26:00.369Z,101614.63
2022-10-28T17:28:02.880Z,101612.94
2022-10-28T17:30:06.457Z,101619.03
2022-10-28T17:32:09.277Z,101618.16
2022-10-28T17:34:12.926Z,101622.50
2022-10-28T17:36:15.161Z,101622.44
2022-10-28T17:38:17.268Z,101628.53
2022-10-28T17:40:19.415Z,101629.38
2022-10-28T17:42:21.750Z,101638.06
2022-10-28T17:44:23.819Z,101639.84
2022-10-28T17:46:26.367Z,101639.81
2022-10-28T17:48:29.345Z,101646.75
2022-10-28T17:50:31.557Z,101635.47
2022-10-28T17:52:37.414Z,101636.28
2022-10-28T17:54:40.856Z,101644.03
2022-10-28T17:56:43.023Z,101631.88
2022-10-28T17:58:44.986Z,101631.81
2022-10-28T18:00:47.171Z,101635.28
2022-10-28T18:02:49.643Z,101630.88
2022-10-28T18:04:51.849Z,101637.72
2022-10-28T18:06:55.863Z,101642.09
2022-10-28T18:08:58.734Z,101648.06
2022-10-28T18:11:01.121Z,101636.78
2022-10-28T18:13:03.425Z,101631.56
2022-10-28T18:15:06.681Z,101646.38
2022-10-28T18:17:08.927Z,101648.75
2022-10-28T18:19:13.580Z,101654.81
2022-10-28T18:21:15.754Z,101661.72
2022-10-28T18:23:17.667Z,101653.78
2022-10-28T18:25:20.892Z,101645.16
2022-10-28T18:27:23.282Z,101639.09
2022-10-28T18:29:25.611Z,101646.75
2022-10-28T18:31:27.710Z,101652.75
2022-10-28T18:33:30.871Z,101656.09
2022-10-28T18:35:35.155Z,101652.66
2022-10-28T18:37:37.450Z,101659.31
2022-10-28T18:39:39.498Z,101670.59
2022-10-28T18:41:43.042Z,101657.59
2022-10-28T18:43:45.998Z,101662.78
2022-10-28T18:45:48.331Z,101665.38
2022-10-28T18:47:50.277Z,101673.94
2022-10-28T18:49:52.399Z,101682.56
2022-10-28T18:51:54.369Z,101686.03
2022-10-28T18:53:57.512Z,101685.94
2022-10-28T18:56:01.443Z,101685.84
2022-10-28T18:58:03.594Z,101684.81
2022-10-28T19:00:22.140Z,101684.88
2022-10-28T19:02:24.672Z,101689.22
2022-10-28T19:04:27.064Z,101683.94
2022-10-28T19:06:32.868Z,101690.72
2022-10-28T19:08:35.319Z,101683.00
2022-10-28T19:10:37.549Z,101684.81
2022-10-28T19:12:42.951Z,101687.31
2022-10-28T19:14:47.292Z,101692.47
2022-10-28T19:16:49.605Z,101692.66
2022-10-28T19:18:57.620Z,101693.41
2022-10-28T19:21:07.289Z,101692.56
2022-10-28T19:23:10.130Z,101700.25
2022-10-28T19:25:13.896Z,101699.25
2022-10-28T19:27:16.339Z,101707.00
2022-10-28T19:29:18.895Z,101699.25
2022-10-28T19:31:23.286Z,101700.09
2022-10-28T19:33:25.460Z,101710.44
2022-10-28T19:35:28.349Z,101706.00
2022-10-28T19:37:30.773Z,101702.75
2022-10-28T19:39:35.374Z,101701.06
2022-10-28T19:41:37.635Z,101702.81
2022-10-28T19:43:40.229Z,101709.59
2022-10-28T19:45:42.778Z,101701.91
2022-10-28T19:47:45.282Z,101701.91
2022-10-28T19:49:47.708Z,101702.69
2022-10-28T19:51:50.329Z,101706.00
2022-10-28T19:53:56.134Z,101704.34
2022-10-28T19:56:00.865Z,101697.50
2022-10-28T19:58:03.315Z,101698.31
2022-10-28T20:00:07.015Z,101700.81
2022-10-28T20:02:12.608Z,101702.53
2022-10-28T20:04:15.177Z,101709.53
2022-10-28T20:06:19.682Z,101706.06
2022-10-28T20:08:22.257Z,101700.81
2022-10-28T20:10:24.537Z,101702.53
2022-10-28T20:12:28.569Z,101698.06
2022-10-28T20:14:32.259Z,101715.31
2022-10-28T20:16:38.050Z,101704.94
2022-10-28T20:18:41.406Z,101709.38
2022-10-28T20:20:45.412Z,101712.72
2022-10-28T20:22:47.849Z,101717.06
2022-10-28T20:24:51.147Z,101717.06
2022-10-28T20:26:53.399Z,101723.13
2022-10-28T20:28:56.964Z,101725.66
2022-10-28T20:31:03.081Z,101736.13
2022-10-28T20:33:07.268Z,101749.19
2022-10-28T20:35:10.280Z,101743.13
2022-10-28T20:37:12.730Z,101744.94
2022-10-28T20:39:17.382Z,101750.09
2022-10-28T20:41:19.588Z,101749.94
2022-10-28T20:43:23.397Z,101745.72
2022-10-28T20:45:25.681Z,101739.56
2022-10-28T20:47:28.473Z,101741.28
2022-10-28T20:49:30.879Z,101738.69
2022-10-28T20:51:34.065Z,101742.97
2022-10-28T20:53:36.749Z,101749.03
2022-10-28T20:55:45.741Z,101747.22
2022-10-28T20:57:48.138Z,101744.69
2022-10-28T20:59:52.045Z,101742.09
2022-10-28T21:01:54.197Z,101733.44
2022-10-28T21:03:58.441Z,101728.28
2022-10-28T21:06:03.613Z,101720.53
2022-10-28T21:08:05.755Z,101722.19
2022-10-28T21:10:08.876Z,101721.41
2022-10-28T21:12:11.371Z,101726.44
2022-10-28T21:14:13.532Z,101732.47
2022-10-28T21:16:16.007Z,101736.91
2022-10-28T21:18:19.374Z,101736.88
2022-10-28T21:20:22.132Z,101748.84
2022-10-28T21:22:24.314Z,101749.69
2022-10-28T21:24:26.390Z,101750.63
2022-10-28T21:26:28.779Z,101747.00
2022-10-28T21:28:32.515Z,101738.56
2022-10-28T21:30:34.869Z,101741.06
2022-10-28T21:32:37.652Z,101748.84
2022-10-28T21:34:39.765Z,101751.53
2022-10-28T21:36:41.835Z,101754.97
2022-10-28T21:38:44.230Z,101750.59
2022-10-28T21:40:47.547Z,101747.25
2022-10-28T21:42:52.593Z,101752.31
2022-10-28T21:44:54.733Z,101757.53
2022-10-28T21:46:56.863Z,101754.94
2022-10-28T21:48:59.308Z,101760.09
2022-10-28T21:51:03.849Z,101763.50
2022-10-28T21:53:07.181Z,101758.38
2022-10-28T21:55:20.303Z,101756.50
2022-10-28T21:57:29.560Z,101751.44
2022-10-28T21:59:31.791Z,101747.00
2022-10-28T22:01:34.117Z,101739.34
2022-10-28T22:03:36.962Z,101741.19
2022-10-28T22:05:39.685Z,101736.88
2022-10-28T22:07:42.104Z,101736.88
2022-10-28T22:09:44.459Z,101732.47
2022-10-28T22:11:46.687Z,101734.00
2022-10-28T22:13:55.693Z,101728.13
2022-10-28T22:16:00.235Z,101717.00
2022-10-28T22:18:02.317Z,101715.19
2022-10-28T22:20:07.707Z,101713.44
2022-10-28T22:22:09.658Z,101712.53
2022-10-28T22:24:11.629Z,101716.88
2022-10-28T22:26:17.143Z,101713.09
2022-10-28T22:28:19.176Z,101720.94
2022-10-28T22:30:21.394Z,101718.19
2022-10-28T22:32:23.210Z,101713.03
2022-10-28T22:34:24.934Z,101712.09
2022-10-28T22:36:29.312Z,101705.22
2022-10-28T22:38:31.249Z,101718.22
2022-10-28T22:40:32.989Z,101707.69
2022-10-28T22:42:35.377Z,101716.38
2022-10-28T22:44:37.092Z,101730.94
2022-10-28T22:46:40.809Z,101726.00
2022-10-28T22:48:42.651Z,101727.66
2022-10-28T22:50:44.406Z,101713.00
2022-10-28T22:52:46.181Z,101696.41
2022-10-28T22:54:47.986Z,101699.94
2022-10-28T22:56:49.685Z,101697.25
2022-10-28T22:58:55.424Z,101691.22
2022-10-28T23:01:07.567Z,101699.81
2022-10-28T23:03:09.292Z,101701.63
2022-10-28T23:05:25.891Z,101699.00
2022-10-28T23:07:40.831Z,101709.38
2022-10-28T23:09:51.072Z,101712.97
2022-10-28T23:12:17.056Z,101718.19
2022-10-28T23:14:27.326Z,101712.91
2022-10-28T23:16:41.937Z,101709.44
2022-10-28T23:18:50.311Z,101698.13
2022-10-28T23:20:58.247Z,101701.47
2022-10-28T23:23:06.444Z,101696.25
2022-10-28T23:25:17.211Z,101695.56
2022-10-28T23:27:31.223Z,101699.94
2022-10-28T23:29:36.542Z,101693.81
2022-10-28T23:31:53.945Z,101694.63
2022-10-28T23:34:02.756Z,101697.09
2022-10-28T23:36:30.916Z,101685.84
2022-10-28T23:38:47.517Z,101664.31
2022-10-28T23:41:11.196Z,101658.22
2022-10-28T23:43:17.376Z,101651.44
2022-10-28T23:45:22.383Z,101644.53
2022-10-28T23:47:35.510Z,101644.34
2022-10-28T23:49:38.041Z,101642.66
2022-10-28T23:51:52.782Z,101646.19
2022-10-28T23:54:00.667Z,101655.66
2022-10-28T23:56:10.513Z,101652.22
2022-10-28T23:58:20.257Z,101651.44
